Time;durP1;ratioP1;P1;durP2;ratioP2;P2;SDS_P1;SDS_P2;PMS_P1;PMS_P2;Temp;Humidity;BMP_temperature;BMP_pressure;BME280_temperature;BME280_humidity;BME280_pressure;Samples;Min_cycle;Max_cycle;Signal;HPM_P1;HPM_P2
2022/09/05 00:02:02;;;;;;;11.67;8.67;;;;;;;15.64;85.03;101743.50;5041561;28;20435;-83
2022/09/05 00:04:43;;;;;;;13.03;8.97;;;;;;;15.60;85.56;101728.63;5042317;28;20029;-84
2022/09/05 00:07:18;;;;;;;14.17;9.00;;;;;;;15.57;85.11;101736.41;5041247;28;20052;-84
2022/09/05 00:09:53;;;;;;;12.40;8.80;;;;;;;15.42;85.52;101732.13;5041940;28;20091;-84
2022/09/05 00:12:20;;;;;;;12.37;8.47;;;;;;;15.50;85.00;101725.53;5041881;28;20061;-84
2022/09/05 00:15:13;;;;;;;11.87;9.00;;;;;;;15.48;84.81;101727.66;5041476;28;20477;-85
2022/09/05 00:17:51;;;;;;;14.00;9.20;;;;;;;15.41;85.17;101726.88;5042343;28;20040;-85
2022/09/05 00:20:54;;;;;;;13.23;9.00;;;;;;;15.43;84.61;101724.78;5042167;28;20059;-84
2022/09/05 00:23:40;;;;;;;11.60;8.60;;;;;;;15.34;84.84;101714.13;5040859;28;20056;-83
2022/09/05 00:26:23;;;;;;;13.27;8.87;;;;;;;15.35;84.70;101721.25;5042542;28;20702;-83
2022/09/05 00:29:37;;;;;;;13.93;9.77;;;;;;;15.35;84.92;101713.06;5024155;28;20051;-84
2022/09/05 00:32:23;;;;;;;15.97;9.50;;;;;;;15.29;86.07;101729.50;4938638;28;20035;-83
2022/09/05 00:35:05;;;;;;;15.30;10.03;;;;;;;15.18;86.73;101723.69;4939522;28;20045;-83
2022/09/05 00:37:38;;;;;;;14.67;10.30;;;;;;;15.24;86.56;101721.13;5010528;28;20044;-83
2022/09/05 00:40:36;;;;;;;15.43;10.93;;;;;;;15.24;86.31;101727.41;5042311;28;20060;-83
2022/09/05 00:43:08;;;;;;;14.60;10.13;;;;;;;15.14;86.07;101714.28;5041313;28;20041;-84
2022/09/05 00:45:42;;;;;;;11.60;9.80;;;;;;;15.01;86.30;101725.28;5041661;28;20389;-84
2022/09/05 00:48:45;;;;;;;13.48;9.38;;;;;;;15.00;86.64;101724.44;5041089;28;20033;-84
2022/09/05 00:51:39;;;;;;;15.53;10.03;;;;;;;15.07;86.62;101726.28;5041910;28;20033;-83
2022/09/05 00:54:16;;;;;;;15.88;10.43;;;;;;;15.01;86.62;101728.88;5015647;28;20705;-84
2022/09/05 00:57:29;;;;;;;13.10;9.93;;;;;;;14.98;86.76;101720.25;5041655;28;20044;-83
2022/09/05 01:00:08;;;;;;;14.53;10.40;;;;;;;15.12;85.54;101719.13;5041372;28;20451;-84
2022/09/05 01:02:40;;;;;;;13.73;10.23;;;;;;;15.19;85.19;101716.34;5041510;28;20709;-83
2022/09/05 01:05:11;;;;;;;16.07;10.53;;;;;;;15.11;85.10;101724.78;5040936;28;20477;-84
2022/09/05 01:08:12;;;;;;;14.17;10.30;;;;;;;15.08;84.93;101719.78;5040378;28;20048;-84
2022/09/05 01:11:00;;;;;;;13.90;10.30;;;;;;;15.05;85.09;101714.75;5036895;28;20048;-83
2022/09/05 01:14:05;;;;;;;14.67;10.80;;;;;;;15.09;85.31;101724.19;5041449;28;20093;-83
2022/09/05 01:16:57;;;;;;;14.27;11.07;;;;;;;15.26;83.89;101717.13;5023695;28;20036;-84
2022/09/05 01:19:44;;;;;;;14.63;11.70;;;;;;;15.39;83.45;101718.09;5010874;28;20135;-83
2022/09/05 01:22:34;;;;;;;15.33;11.30;;;;;;;15.26;85.10;101722.59;5041711;28;20075;-84
2022/09/05 01:25:33;;;;;;;16.13;12.07;;;;;;;15.47;82.94;101715.91;5059892;28;20140;-83
2022/09/05 01:28:41;;;;;;;15.53;12.80;;;;;;;15.62;82.08;101714.72;5061312;28;20094;-84
2022/09/05 01:31:10;;;;;;;15.50;11.13;;;;;;;15.39;84.09;101713.44;5061188;28;20403;-83
2022/09/05 01:34:01;;;;;;;15.20;10.90;;;;;;;15.49;83.49;101711.06;5060502;28;20178;-84
2022/09/05 01:36:45;;;;;;;15.73;11.63;;;;;;;15.33;84.38;101715.19;5065795;28;20048;-83
2022/09/05 01:39:24;;;;;;;13.93;11.20;;;;;;;15.40;83.86;101719.75;5067920;28;20039;-84
2022/09/05 01:42:01;;;;;;;13.87;10.73;;;;;;;15.32;84.48;101723.59;5067293;28;20039;-83
2022/09/05 01:44:54;;;;;;;13.27;10.77;;;;;;;15.30;83.69;101707.44;5066132;28;20119;-83
2022/09/05 01:47:44;;;;;;;13.23;10.57;;;;;;;15.41;82.96;101711.34;5068789;28;20041;-83
2022/09/05 01:50:38;;;;;;;16.47;11.00;;;;;;;15.32;83.73;101709.94;5067869;28;20430;-83
2022/09/05 01:53:32;;;;;;;14.43;11.40;;;;;;;15.25;83.62;101715.44;5066253;28;20082;-83
2022/09/05 01:55:57;;;;;;;15.27;12.57;;;;;;;15.33;83.29;101706.16;5068414;28;20024;-83
2022/09/05 01:58:52;;;;;;;15.80;11.60;;;;;;;15.28;83.71;101706.81;5067728;28;20036;-83
2022/09/05 02:01:23;;;;;;;15.27;11.23;;;;;;;15.14;84.30;101714.28;5059918;28;20049;-84
2022/09/05 02:03:57;;;;;;;17.03;12.80;;;;;;;15.23;84.10;101714.00;5067276;28;20491;-83
2022/09/05 02:06:41;;;;;;;15.93;11.70;;;;;;;15.18;84.03;101710.03;5066968;28;20040;-83
2022/09/05 02:09:18;;;;;;;16.83;12.03;;;;;;;15.12;84.02;101713.66;5067882;28;20082;-83
2022/09/05 02:12:00;;;;;;;16.67;12.13;;;;;;;15.05;84.55;101709.31;5067711;28;20124;-84
2022/09/05 02:14:41;;;;;;;17.00;12.20;;;;;;;15.07;84.46;101707.19;5067076;28;20033;-83
2022/09/05 02:17:18;;;;;;;16.23;12.40;;;;;;;15.01;84.94;101715.22;5066000;28;20033;-83
2022/09/05 02:20:07;;;;;;;15.80;12.77;;;;;;;15.07;84.24;101716.22;5067723;28;20043;-83
2022/09/05 02:23:00;;;;;;;15.83;12.83;;;;;;;15.03;84.42;101715.81;5066684;28;20391;-83
2022/09/05 02:25:49;;;;;;;17.33;12.70;;;;;;;14.95;84.63;101713.34;5047238;28;20060;-83
2022/09/05 02:28:33;;;;;;;17.23;13.30;;;;;;;14.93;84.68;101718.22;5035276;28;20056;-84
2022/09/05 02:31:07;;;;;;;16.10;12.37;;;;;;;14.96;84.91;101714.19;5047696;28;20130;-83
2022/09/05 02:33:43;;;;;;;16.47;13.03;;;;;;;14.95;84.89;101724.25;5045618;28;20119;-83
2022/09/05 02:36:21;;;;;;;16.10;12.73;;;;;;;14.92;84.64;101719.25;5047205;28;20037;-83
2022/09/05 02:39:07;;;;;;;15.77;12.83;;;;;;;14.97;84.90;101726.78;5046371;28;20028;-83
2022/09/05 02:42:08;;;;;;;17.23;12.63;;;;;;;15.00;84.57;101723.59;5046798;28;20051;-83
2022/09/05 02:44:51;;;;;;;17.27;12.80;;;;;;;14.95;85.05;101724.25;5013934;28;20075;-83
2022/09/05 02:47:27;;;;;;;18.77;13.77;;;;;;;14.88;85.15;101728.09;5044499;28;20040;-84
2022/09/05 02:50:22;;;;;;;20.77;15.77;;;;;;;15.13;84.61;101725.41;5043561;28;20037;-84
2022/09/05 02:52:48;;;;;;;;;;;;;;;15.17;82.87;101721.19;5044532;28;20094;-83
2022/09/05 02:55:52;;;;;;;16.90;13.83;;;;;;;15.04;84.94;101716.66;5043733;28;19929;-83
2022/09/05 02:58:35;;;;;;;21.90;16.50;;;;;;;15.12;84.84;101727.31;4991221;28;20048;-82
2022/09/05 03:01:29;;;;;;;22.83;18.07;;;;;;;15.31;85.15;101722.78;5043124;28;20032;-84
2022/09/05 03:04:33;;;;;;;21.38;17.73;;;;;;;15.28;83.97;101722.38;5039594;28;20045;-83
2022/09/05 03:07:11;;;;;;;18.83;15.00;;;;;;;15.19;84.34;101724.53;5042404;28;20032;-83
2022/09/05 03:09:39;;;;;;;23.80;18.80;;;;;;;15.35;84.91;101726.72;5043142;28;20029;-83
2022/09/05 03:15:53;;;;;;;24.00;19.40;;;;;;;15.39;83.88;101723.53;5019033;28;20309;-83
2022/09/05 03:18:56;;;;;;;23.50;17.87;;;;;;;15.36;83.94;101724.81;5043394;28;20044;-83
2022/09/05 03:21:43;;;;;;;21.57;16.90;;;;;;;15.36;83.98;101719.34;5043368;28;20049;-83
2022/09/05 03:24:33;;;;;;;24.20;19.30;;;;;;;15.42;83.97;101723.09;5042584;28;20056;-83
2022/09/05 03:27:36;;;;;;;23.87;18.03;;;;;;;15.41;83.74;101724.13;5043557;28;20112;-83
2022/09/05 03:30:17;;;;;;;25.70;20.30;;;;;;;15.50;84.21;101723.66;5027944;28;20717;-83
2022/09/05 03:32:56;;;;;;;23.20;18.87;;;;;;;15.40;83.73;101727.94;5043150;28;20033;-83
2022/09/05 03:35:39;;;;;;;23.03;18.10;;;;;;;15.29;83.56;101734.97;5042164;28;20069;-84
2022/09/05 03:38:23;;;;;;;24.57;20.00;;;;;;;15.39;84.02;101734.47;5043579;28;20055;-84
2022/09/05 03:41:09;;;;;;;24.17;18.10;;;;;;;15.29;83.54;101730.34;5042843;28;20033;-83
2022/09/05 03:43:50;;;;;;;25.63;18.67;;;;;;;15.26;83.59;101730.78;5042062;28;20029;-83
2022/09/05 03:46:51;;;;;;;23.93;19.87;;;;;;;15.28;83.88;101723.19;5042159;28;20480;-83
2022/09/05 03:49:26;;;;;;;27.43;19.13;;;;;;;15.30;84.17;101732.00;5042583;28;20494;-83
2022/09/05 03:52:22;;;;;;;23.43;19.40;;;;;;;15.26;84.48;101730.78;5042985;28;20119;-83
2022/09/05 03:54:50;;;;;;;21.70;16.73;;;;;;;14.96;84.67;101720.50;5042091;28;20040;-84
2022/09/05 03:57:41;;;;;;;22.97;18.13;;;;;;;15.01;84.52;101723.41;5042934;28;20033;-83
2022/09/05 04:00:20;;;;;;;26.43;21.07;;;;;;;15.13;85.17;101718.06;5042056;28;20032;-83
2022/09/05 04:03:04;;;;;;;23.37;19.23;;;;;;;15.06;85.38;101719.19;5043411;28;20033;-84
2022/09/05 04:05:56;;;;;;;23.15;18.75;;;;;;;14.99;84.41;101728.22;5042012;28;20071;-83
2022/09/05 04:08:40;;;;;;;25.10;20.13;;;;;;;15.09;85.34;101718.72;5041377;28;20048;-83
2022/09/05 04:11:15;;;;;;;26.80;20.00;;;;;;;14.97;85.34;101715.84;5042378;28;20047;-84
2022/09/05 04:14:01;;;;;;;26.27;20.27;;;;;;;14.96;85.77;101715.03;5041499;28;20121;-84
2022/09/05 04:16:49;;;;;;;23.13;17.73;;;;;;;14.85;85.98;101723.94;5042457;28;20032;-84
2022/09/05 04:19:40;;;;;;;24.53;20.73;;;;;;;14.65;87.69;101715.84;5040832;28;20446;-84
2022/09/05 04:28:13;;;;;;;24.93;20.53;;;;;;;14.84;87.88;101733.16;5055813;28;20040;-84
2022/09/05 04:30:48;;;;;;;26.17;20.40;;;;;;;14.95;87.57;101729.72;5061823;28;20036;-83
2022/09/05 04:33:16;;;;;;;24.77;19.60;;;;;;;14.96;87.05;101731.41;5061173;28;20039;-82
2022/09/05 04:36:00;;;;;;;26.10;19.17;;;;;;;14.77;87.08;101740.53;5061419;28;20040;-83
2022/09/05 04:38:40;;;;;;;26.65;19.63;;;;;;;14.77;86.78;101733.19;5061965;28;20024;-83
2022/09/05 04:41:19;;;;;;;26.23;21.47;;;;;;;14.84;87.66;101727.72;5061076;28;20033;-83
2022/09/05 04:43:58;;;;;;;24.77;20.60;;;;;;;14.91;87.90;101727.66;5044612;28;20541;-83
2022/09/05 04:46:29;;;;;;;25.87;21.27;;;;;;;14.87;87.29;101735.44;5060610;28;20047;-83
2022/09/05 04:48:54;;;;;;;28.17;20.80;;;;;;;14.95;87.27;101740.63;5060571;28;20108;-84
2022/09/05 04:51:37;;;;;;;24.70;19.33;;;;;;;14.83;86.83;101734.22;5060375;28;20031;-84
2022/09/05 04:54:08;;;;;;;25.73;19.33;;;;;;;14.56;86.70;101731.56;5060401;28;20503;-84
2022/09/05 04:56:43;;;;;;;22.83;18.83;;;;;;;14.59;86.69;101736.63;5061128;28;20032;-83
2022/09/05 04:59:24;;;;;;;26.33;19.60;;;;;;;14.71;86.82;101742.22;5060453;28;20025;-83
2022/09/05 05:02:14;;;;;;;23.60;18.90;;;;;;;14.73;87.08;101747.47;5041834;28;20828;-83
2022/09/05 05:04:39;;;;;;;24.70;19.87;;;;;;;14.78;87.06;101744.94;5042327;28;20110;-83
2022/09/05 05:07:17;;;;;;;24.97;18.93;;;;;;;14.75;86.83;101745.38;5060951;28;20556;-83
2022/09/05 05:09:49;;;;;;;25.13;19.83;;;;;;;14.79;87.47;101741.97;5061291;28;20038;-83
2022/09/05 05:12:20;;;;;;;25.80;18.97;;;;;;;14.73;87.25;101752.94;5061484;28;20037;-83
2022/09/05 05:14:56;;;;;;;25.50;18.93;;;;;;;14.65;87.00;101752.13;5060757;28;20105;-83
2022/09/05 05:17:40;;;;;;;23.03;19.33;;;;;;;14.65;87.23;101743.94;5060850;28;20046;-83
2022/09/05 05:20:23;;;;;;;26.00;20.13;;;;;;;14.76;87.96;101752.50;5061368;28;20543;-83
2022/09/05 05:23:12;;;;;;;25.13;19.83;;;;;;;14.73;87.68;101756.50;5060823;28;20038;-83
2022/09/05 05:25:46;;;;;;;25.30;19.67;;;;;;;14.75;87.27;101751.66;5048516;28;20048;-83
2022/09/05 05:28:34;;;;;;;24.93;18.83;;;;;;;14.73;87.12;101752.94;5060253;28;20039;-83
2022/09/05 05:31:11;;;;;;;23.33;19.13;;;;;;;14.72;87.24;101756.72;5060960;28;20387;-83
2022/09/05 05:33:38;;;;;;;27.03;18.83;;;;;;;14.50;87.62;101760.56;5043091;28;20157;-83
2022/09/05 05:36:08;;;;;;;57.90;20.57;;;;;;;14.46;88.44;101763.94;5058663;28;20544;-83
2022/09/05 05:39:02;;;;;;;30.97;20.10;;;;;;;14.58;88.68;101756.75;5060952;28;20027;-83
2022/09/05 05:41:35;;;;;;;25.57;20.67;;;;;;;14.61;89.22;101756.31;5060758;28;20167;-83
2022/09/05 05:44:27;;;;;;;56.37;21.60;;;;;;;14.59;88.83;101761.16;5059940;28;20139;-83
2022/09/05 05:46:59;;;;;;;32.30;21.30;;;;;;;14.78;88.91;101758.56;5061059;28;20035;-83
2022/09/05 05:49:47;;;;;;;28.27;22.03;;;;;;;14.91;88.66;101761.22;5060423;28;20036;-83
2022/09/05 05:52:36;;;;;;;24.67;20.93;;;;;;;14.94;88.34;101751.78;5061230;28;20028;-83
2022/09/05 05:55:13;;;;;;;27.77;21.67;;;;;;;15.04;88.47;101760.34;5060720;28;20039;-84
2022/09/05 05:57:41;;;;;;;25.10;21.27;;;;;;;14.99;88.86;101754.69;5061539;28;20265;-83
2022/09/05 06:00:22;;;;;;;27.80;21.40;;;;;;;14.93;89.56;101758.28;5061016;28;20041;-83
2022/09/05 06:02:51;;;;;;;26.87;21.30;;;;;;;15.14;89.09;101765.31;5060619;28;20115;-83
2022/09/05 06:05:33;;;;;;;25.87;22.43;;;;;;;15.19;89.18;101768.22;5060366;28;20037;-84
2022/09/05 06:08:04;;;;;;;28.50;21.87;;;;;;;15.38;88.34;101776.47;5060772;28;20489;-83
2022/09/05 06:10:57;;;;;;;26.87;21.37;;;;;;;15.43;87.65;101782.13;5060691;28;20032;-83
2022/09/05 06:13:57;;;;;;;30.60;22.93;;;;;;;15.61;86.56;101787.66;5061140;28;20044;-83
2022/09/05 06:16:47;;;;;;;31.93;23.40;;;;;;;15.77;85.59;101786.25;5061193;28;20167;-83
2022/09/05 06:19:30;;;;;;;28.43;23.43;;;;;;;16.00;84.51;101788.38;5061420;28;20549;-84
2022/09/05 06:22:23;;;;;;;30.03;23.80;;;;;;;16.11;83.93;101784.06;5061087;28;20046;-83
2022/09/05 06:25:25;;;;;;;28.03;23.03;;;;;;;16.28;82.80;101789.78;5064506;28;20085;-83
2022/09/05 06:28:12;;;;;;;28.73;22.43;;;;;;;16.47;81.77;101800.72;5063601;28;20159;-84
2022/09/05 06:31:03;;;;;;;27.93;22.27;;;;;;;16.64;80.58;101799.03;5064326;28;20570;-83
2022/09/05 06:33:50;;;;;;;29.40;22.27;;;;;;;16.78;80.53;101790.66;5012729;28;20044;-84
2022/09/05 06:36:34;;;;;;;27.80;23.33;;;;;;;16.96;79.71;101793.41;5045655;28;20036;-83
2022/09/05 06:39:29;;;;;;;27.95;22.15;;;;;;;17.10;79.00;101782.28;5064150;28;20036;-85
2022/09/05 06:42:33;;;;;;;26.77;21.00;;;;;;;17.30;77.39;101792.91;5062754;28;20040;-84
2022/09/05 06:45:44;;;;;;;27.77;20.85;;;;;;;17.51;76.57;101795.13;5063791;28;20038;-84
2022/09/05 06:48:22;;;;;;;26.37;20.40;;;;;;;17.74;75.81;101798.16;5063701;28;20032;-84
2022/09/05 06:51:24;;;;;;;25.60;18.63;;;;;;;17.92;75.59;101791.75;5062983;28;20029;-84
2022/09/05 06:54:08;;;;;;;25.93;19.73;;;;;;;18.17;73.83;101802.47;5063498;28;20047;-84
2022/09/05 06:56:58;;;;;;;26.65;19.35;;;;;;;18.38;72.84;101799.09;5062964;28;20044;-83
2022/09/05 06:59:51;;;;;;;26.53;19.77;;;;;;;18.62;72.60;101800.94;5064168;28;21067;-83
2022/09/05 07:02:19;;;;;;;28.13;19.73;;;;;;;18.83;71.12;101799.47;5063584;28;20056;-83
2022/09/05 07:05:35;;;;;;;28.77;19.73;;;;;;;19.01;72.25;101788.34;5063683;28;20043;-84
2022/09/05 07:08:08;;;;;;;25.00;18.97;;;;;;;19.25;71.09;101785.47;5055497;28;20122;-84
2022/09/05 07:10:37;;;;;;;25.40;18.90;;;;;;;19.38;68.63;101796.16;5063666;28;20032;-84
2022/09/05 07:13:16;;;;;;;27.03;20.07;;;;;;;19.52;68.73;101779.34;5062198;28;20024;-84
2022/09/05 07:15:49;;;;;;;25.95;18.13;;;;;;;19.69;68.11;101796.66;5060887;28;20732;-83
2022/09/05 07:18:24;;;;;;;25.60;17.95;;;;;;;19.85;66.62;101792.25;5063299;28;20492;-84
2022/09/05 07:20:56;;;;;;;24.80;19.13;;;;;;;20.00;65.65;101797.16;5062076;28;20048;-84
2022/09/05 07:23:39;;;;;;;24.17;18.50;;;;;;;20.17;65.43;101801.81;5062609;28;20036;-83
2022/09/05 07:26:08;;;;;;;24.97;18.73;;;;;;;20.31;64.93;101803.09;5062716;28;21555;-83
2022/09/05 07:28:35;;;;;;;26.92;18.67;;;;;;;20.47;64.83;101798.66;5045374;28;20056;-83
2022/09/05 07:31:19;;;;;;;25.27;18.50;;;;;;;20.63;64.75;101805.19;5063948;28;20037;-84
2022/09/05 07:33:47;;;;;;;26.88;18.45;;;;;;;20.69;62.81;101792.34;5062652;28;20044;-85
2022/09/05 07:36:22;;;;;;;24.83;18.90;;;;;;;20.77;62.87;101804.81;5060696;28;20701;-83
2022/09/05 07:38:54;;;;;;;24.92;18.13;;;;;;;20.91;62.92;101795.88;5063092;28;20028;-85
2022/09/05 07:41:28;;;;;;;29.67;18.30;;;;;;;21.12;62.89;101793.38;5062989;28;20391;-84
2022/09/05 07:44:00;;;;;;;26.52;17.90;;;;;;;21.32;62.94;101806.50;5061757;28;20080;-84
2022/09/05 07:46:31;;;;;;;24.35;17.00;;;;;;;21.52;61.88;101807.78;5029440;28;20037;-82
2022/09/05 07:49:13;;;;;;;24.65;16.48;;;;;;;21.61;60.16;101808.16;5062542;28;20405;-83
2022/09/05 07:52:00;;;;;;;26.33;16.60;;;;;;;21.75;59.92;101815.72;5043799;28;20656;-83
2022/09/05 07:54:32;;;;;;;23.50;16.55;;;;;;;21.87;59.36;101820.25;5062322;28;20127;-85
2022/09/05 07:57:08;;;;;;;25.48;16.95;;;;;;;21.98;58.99;101818.41;5044178;28;20036;-83
2022/09/05 07:59:37;;;;;;;23.75;16.08;;;;;;;22.11;58.87;101817.09;5063113;28;20455;-82
2022/09/05 08:02:04;;;;;;;24.58;16.63;;;;;;;22.15;57.72;101819.03;5061799;28;20032;-84
2022/09/05 08:04:36;;;;;;;25.60;16.80;;;;;;;22.28;57.38;101822.44;5062436;28;20388;-84
2022/09/05 08:07:14;;;;;;;23.77;16.75;;;;;;;22.43;57.59;101826.13;5062843;28;20039;-84
2022/09/05 08:09:48;;;;;;;28.42;17.30;;;;;;;22.41;56.41;101833.88;5062206;28;20109;-83
2022/09/05 08:12:19;;;;;;;26.35;18.00;;;;;;;22.55;56.49;101838.91;5061667;28;20480;-83
2022/09/05 08:15:10;;;;;;;25.27;17.98;;;;;;;22.82;57.71;101830.47;5063018;28;20041;-84
2022/09/05 08:18:01;;;;;;;28.85;17.80;;;;;;;23.07;57.16;101821.41;5046575;28;20035;-83
2022/09/05 08:20:44;;;;;;;25.23;17.33;;;;;;;23.41;55.56;101829.22;5062557;28;20127;-83
2022/09/05 08:23:15;;;;;;;25.08;17.25;;;;;;;23.52;53.97;101824.53;5061065;28;20384;-83
2022/09/05 08:26:08;;;;;;;25.48;17.52;;;;;;;23.83;54.30;101826.50;5061762;28;20032;-84
2022/09/05 08:28:59;;;;;;;26.77;17.00;;;;;;;24.05;54.22;101818.72;5061457;28;20031;-84
2022/09/05 08:31:30;;;;;;;22.15;15.63;;;;;;;24.34;53.18;101828.34;5062295;28;20116;-82
2022/09/05 08:33:59;;;;;;;24.70;14.50;;;;;;;24.57;51.33;101819.44;5061612;28;20041;-85
2022/09/05 08:36:45;;;;;;;20.58;12.90;;;;;;;24.76;50.81;101829.88;5062406;28;20043;-85
2022/09/05 08:39:14;;;;;;;18.13;12.40;;;;;;;25.05;49.51;101823.63;5061876;28;20119;-85
2022/09/05 08:42:07;;;;;;;23.65;13.57;;;;;;;25.34;48.79;101829.31;5061377;28;20056;-86
2022/09/05 08:44:45;;;;;;;20.77;12.85;;;;;;;25.59;48.25;101836.63;5040540;28;20395;-83
2022/09/05 08:47:33;;;;;;;18.83;11.02;;;;;;;25.77;47.54;101837.00;5061344;28;20031;-83
2022/09/05 08:50:01;;;;;;;18.83;11.27;;;;;;;25.92;46.18;101838.81;5061502;28;20037;-84
2022/09/05 08:52:42;;;;;;;15.60;9.75;;;;;;;26.03;45.43;101834.88;5042895;28;20030;-84
2022/09/05 08:55:18;;;;;;;16.20;9.88;;;;;;;26.20;45.21;101822.47;5060870;28;20388;-84
2022/09/05 08:58:01;;;;;;;12.23;7.68;;;;;;;26.49;44.03;101824.34;5060590;28;20040;-83
2022/09/05 09:00:34;;;;;;;12.88;6.38;;;;;;;26.56;43.21;101819.25;5061581;28;20059;-86
2022/09/05 09:03:09;;;;;;;10.82;6.85;;;;;;;26.85;42.63;101818.38;5042486;28;20055;-86
2022/09/05 09:05:53;;;;;;;15.48;7.25;;;;;;;27.14;44.44;101809.88;5029689;28;20039;-85
2022/09/05 09:08:31;;;;;;;15.02;8.88;;;;;;;27.49;42.98;101810.47;5043455;28;20132;-85
2022/09/05 09:11:09;;;;;;;13.45;7.30;;;;;;;27.71;42.52;101800.66;5060754;28;20028;-83
2022/09/05 09:13:51;;;;;;;9.23;6.00;;;;;;;28.03;41.29;101805.38;5060294;28;20082;-86
2022/09/05 09:16:19;;;;;;;10.68;5.68;;;;;;;28.23;41.16;101804.16;5061774;28;20045;-86
2022/09/05 09:19:00;;;;;;;12.05;5.82;;;;;;;28.62;41.85;101802.78;5061128;28;20040;-85
2022/09/05 09:21:34;;;;;;;11.43;5.20;;;;;;;28.67;39.48;101801.91;5062242;28;20032;-85
2022/09/05 09:24:32;;;;;;;8.02;4.43;;;;;;;28.91;37.96;101800.81;5061316;28;20104;-83
2022/09/05 09:27:06;;;;;;;9.05;4.38;;;;;;;28.84;38.14;101797.63;5045685;28;21478;-88
2022/09/05 09:29:38;;;;;;;6.75;3.92;;;;;;;28.93;36.14;101793.78;5062135;28;20043;-82
2022/09/05 09:32:12;;;;;;;6.18;3.40;;;;;;;29.09;37.01;101801.78;5043932;28;20033;-85
2022/09/05 09:34:50;;;;;;;4.88;3.40;;;;;;;29.21;37.11;101792.84;5044680;28;20173;-87
2022/09/05 09:37:53;;;;;;;5.63;3.30;;;;;;;29.57;37.46;101792.00;5043413;28;20080;-86
2022/09/05 09:41:00;;;;;;;10.30;3.08;;;;;;;29.53;35.49;101793.78;5047185;28;20036;-84
2022/09/05 09:43:34;;;;;;;6.10;2.92;;;;;;;29.69;35.10;101791.38;4982245;28;20070;-85
2022/09/05 09:46:22;;;;;;;6.70;3.00;;;;;;;29.63;33.60;101788.75;5049465;28;20112;-84
2022/09/05 09:48:53;;;;;;;4.13;2.70;;;;;;;29.58;33.85;101780.50;5061995;28;20368;-84
2022/09/05 09:51:25;;;;;;;5.45;2.80;;;;;;;29.65;33.93;101785.63;5061546;28;20040;-85
2022/09/05 09:54:15;;;;;;;5.35;2.70;;;;;;;29.77;34.78;101787.81;5061196;28;20032;-81
2022/09/05 09:56:46;;;;;;;7.13;2.78;;;;;;;29.66;34.84;101778.06;5062268;28;20036;-87
2022/09/05 09:59:25;;;;;;;5.05;2.60;;;;;;;29.88;34.91;101782.81;5065502;28;20364;-83
2022/09/05 10:02:21;;;;;;;7.88;2.70;;;;;;;29.95;34.23;101783.19;5065278;28;20556;-86
2022/09/05 10:04:49;;;;;;;6.88;3.10;;;;;;;30.12;33.15;101783.28;5065502;28;20086;-85
2022/09/05 10:07:28;;;;;;;6.28;2.40;;;;;;;29.99;31.99;101778.63;5065115;28;20417;-86
2022/09/05 10:09:56;;;;;;;6.70;2.70;;;;;;;30.18;32.90;101780.31;5065589;28;20484;-86
2022/09/05 10:12:39;;;;;;;4.28;2.50;;;;;;;30.37;32.06;101777.25;5064774;28;20078;-85
2022/09/05 10:15:24;;;;;;;6.25;2.60;;;;;;;30.35;32.25;101769.19;5065235;28;21093;-86
2022/09/05 10:18:18;;;;;;;9.13;2.63;;;;;;;30.50;32.09;101770.72;5063731;28;20044;-86
2022/09/05 10:21:05;;;;;;;3.92;2.20;;;;;;;30.58;31.09;101763.50;5064263;28;20038;-92
2022/09/05 10:24:17;;;;;;;6.82;1.90;;;;;;;30.58;29.81;101755.13;5064750;28;20116;-87
2022/09/05 10:27:00;;;;;;;3.80;2.20;;;;;;;30.34;30.10;101753.59;5031907;28;20072;-85
2022/09/05 10:29:44;;;;;;;3.17;1.92;;;;;;;30.20;29.80;101759.28;5065678;28;20040;-89
2022/09/05 10:32:18;;;;;;;6.03;2.05;;;;;;;30.18;29.75;101756.00;5064670;28;20354;-88
2022/09/05 10:34:58;;;;;;;2.92;1.80;;;;;;;30.38;29.98;101754.56;5064590;28;20090;-90
2022/09/05 10:37:40;;;;;;;6.20;2.00;;;;;;;30.52;29.83;101757.25;5064151;28;20403;-86
2022/09/05 10:40:11;;;;;;;2.45;1.98;;;;;;;30.58;28.89;101746.75;5064462;28;20106;-87
2022/09/05 10:42:51;;;;;;;3.60;1.85;;;;;;;30.85;30.28;101753.19;5064269;28;20035;-85
2022/09/05 10:45:28;;;;;;;3.83;1.95;;;;;;;30.85;29.34;101740.00;5065406;28;20036;-88
2022/09/05 10:48:08;;;;;;;2.75;1.80;;;;;;;31.11;28.89;101745.59;5064368;28;20035;-84
2022/09/05 10:50:43;;;;;;;2.83;1.55;;;;;;;30.79;27.77;101749.69;5065162;28;20043;-88
2022/09/05 10:53:46;;;;;;;3.80;1.77;;;;;;;30.76;29.58;101740.03;5062916;28;20028;-85
2022/09/05 10:56:11;;;;;;;2.07;1.70;;;;;;;30.93;28.56;101741.16;5064846;28;20037;-85
2022/09/05 10:59:00;;;;;;;3.88;1.70;;;;;;;30.91;27.70;101735.06;5063790;28;20345;-89
2022/09/05 11:01:32;;;;;;;4.20;1.70;;;;;;;30.84;28.07;101734.75;5064837;28;20032;-86
2022/09/05 11:04:19;;;;;;;2.45;1.75;;;;;;;30.90;28.08;101737.06;5064804;28;20568;-86
2022/09/05 11:06:44;;;;;;;1.70;1.60;;;;;;;31.09;27.81;101730.28;5064182;28;20036;-86
2022/09/05 11:09:27;;;;;;;3.60;1.48;;;;;;;31.29;27.83;101735.22;5062678;28;20040;-84
2022/09/05 11:12:05;;;;;;;4.32;1.70;;;;;;;31.34;27.68;101725.81;5063713;28;20093;-86
2022/09/05 11:14:40;;;;;;;3.67;1.80;;;;;;;31.28;27.79;101730.78;5063525;28;20119;-84
2022/09/05 11:17:29;;;;;;;3.97;1.98;;;;;;;31.49;27.99;101716.88;5062419;28;20040;-84
2022/09/05 11:20:00;;;;;;;2.38;1.58;;;;;;;31.33;27.53;101718.56;5030888;28;20047;-84
2022/09/05 11:22:33;;;;;;;4.93;1.65;;;;;;;31.22;27.98;101712.50;5063779;28;20047;-84
2022/09/05 11:25:02;;;;;;;2.63;1.67;;;;;;;31.49;27.90;101716.88;5062576;28;21323;-86
2022/09/05 11:27:44;;;;;;;4.10;1.70;;;;;;;31.08;27.62;101714.69;5078639;28;20139;-87
2022/09/05 11:30:14;;;;;;;4.63;1.90;;;;;;;31.12;28.57;101718.47;5064004;28;20035;-84
2022/09/05 11:32:55;;;;;;;4.32;1.83;;;;;;;30.97;27.78;101712.19;5063645;28;20436;-85
2022/09/05 11:35:31;;;;;;;5.05;1.67;;;;;;;30.92;27.71;101711.53;5064361;28;20962;-83
2022/09/05 11:38:09;;;;;;;4.53;1.80;;;;;;;30.91;28.16;101712.69;5063756;28;20028;-86
2022/09/05 11:41:12;;;;;;;2.33;1.70;;;;;;;30.83;28.48;101711.53;5063953;28;20024;-84
2022/09/05 11:43:52;;;;;;;3.90;1.90;;;;;;;30.83;28.58;101703.13;5062333;28;20032;-84
2022/09/05 11:46:44;;;;;;;3.25;1.70;;;;;;;30.97;28.75;101705.78;5063742;28;20036;-84
2022/09/05 11:49:30;;;;;;;2.88;1.63;;;;;;;31.03;28.98;101704.47;5063421;28;20032;-87
2022/09/05 11:52:33;;;;;;;3.10;1.55;;;;;;;31.11;29.66;101700.84;5045868;28;20097;-84
2022/09/05 11:55:18;;;;;;;5.05;1.90;;;;;;;31.14;28.62;101699.34;5062969;28;20109;-86
2022/09/05 11:57:47;;;;;;;3.85;1.75;;;;;;;31.09;28.18;101703.16;5062760;28;20365;-84
2022/09/05 12:00:18;;;;;;;3.08;1.83;;;;;;;31.15;29.22;101706.59;5062675;28;20062;-85
2022/09/05 12:03:00;;;;;;;3.67;1.60;;;;;;;31.03;28.87;101695.25;5062668;28;20040;-84
2022/09/05 12:05:36;;;;;;;3.03;1.77;;;;;;;31.14;29.06;101699.34;5047666;28;20305;-84
2022/09/05 12:08:10;;;;;;;2.90;1.60;;;;;;;30.89;30.38;101692.63;5062183;28;20586;-85
2022/09/05 12:11:13;;;;;;;2.13;1.70;;;;;;;30.87;28.36;101690.16;5062578;28;20044;-86
2022/09/05 12:13:46;;;;;;;2.95;1.63;;;;;;;30.74;27.84;101683.56;5009809;28;20053;-86
2022/09/05 12:16:38;;;;;;;3.45;1.70;;;;;;;30.64;28.52;101697.88;5063069;28;20064;-84
2022/09/05 12:19:15;;;;;;;4.55;1.73;;;;;;;30.57;29.31;101692.78;5061806;28;20036;-84
2022/09/05 12:22:09;;;;;;;5.22;1.80;;;;;;;30.59;29.51;101689.66;5062847;28;20027;-84
2022/09/05 12:24:53;;;;;;;3.72;1.90;;;;;;;30.42;28.87;101680.09;5062175;28;20089;-83
2022/09/05 12:27:23;;;;;;;2.63;1.80;;;;;;;30.18;29.17;101679.69;5062957;28;20128;-86
2022/09/05 12:29:55;;;;;;;5.50;2.05;;;;;;;30.12;29.59;101676.25;5044088;28;20044;-88
2022/09/05 12:32:24;;;;;;;2.53;1.60;;;;;;;29.94;29.06;101679.00;5062244;28;20033;-85